Time;durP1;ratioP1;P1;durP2;ratioP2;P2;SDS_P1;SDS_P2;PMS_P1;PMS_P2;Temp;Humidity;BMP_temperature;BMP_pressure;BME280_temperature;BME280_humidity;BME280_pressure;Samples;Min_cycle;Max_cycle;Signal;HPM_P1;HPM_P2
2023/05/09 00:01:47;;;;;;;78.30;50.30;;;15.80;99.90;;;;;;7367869;19;20049;-64
2023/05/09 00:04:15;;;;;;;78.32;49.58;;;15.70;99.90;;;;;;7363924;19;20027;-65
2023/05/09 00:06:41;;;;;;;69.82;49.22;;;15.70;99.90;;;;;;7370058;19;20469;-64
2023/05/09 00:09:07;;;;;;;72.65;47.85;;;15.70;99.90;;;;;;7367916;19;20516;-64
2023/05/09 00:11:33;;;;;;;69.00;45.85;;;15.70;99.90;;;;;;7365902;19;20734;-63
2023/05/09 00:14:00;;;;;;;70.55;47.25;;;15.80;99.90;;;;;;7368130;19;20054;-64
2023/05/09 00:16:27;;;;;;;63.55;45.75;;;15.70;99.90;;;;;;7368089;19;20023;-64
2023/05/09 00:18:54;;;;;;;72.03;48.65;;;15.70;99.90;;;;;;7367884;19;20382;-64
2023/05/09 00:21:23;;;;;;;72.95;47.30;;;15.70;99.90;;;;;;7367713;19;20022;-64
2023/05/09 00:23:50;;;;;;;67.13;45.30;;;15.70;99.90;;;;;;7366900;19;20015;-63
2023/05/09 00:26:16;;;;;;;66.70;44.70;;;15.70;99.90;;;;;;7366573;19;20477;-64
2023/05/09 00:28:43;;;;;;;68.05;45.05;;;15.70;99.90;;;;;;7364190;19;20474;-63
2023/05/09 00:31:09;;;;;;;68.68;44.40;;;15.70;99.90;;;;;;7359622;19;20045;-63
2023/05/09 00:33:35;;;;;;;65.80;45.38;;;15.70;99.90;;;;;;7365659;19;20057;-60
2023/05/09 00:36:02;;;;;;;65.28;44.53;;;15.60;99.90;;;;;;7365414;19;20021;-63
2023/05/09 00:38:29;;;;;;;64.65;44.42;;;15.60;99.90;;;;;;7364462;19;20027;-62
2023/05/09 00:40:55;;;;;;;65.32;44.25;;;15.60;99.90;;;;;;7366034;19;20117;-63
2023/05/09 00:43:21;;;;;;;64.43;43.15;;;15.60;99.90;;;;;;7361600;19;20019;-63
2023/05/09 00:45:48;;;;;;;63.63;43.55;;;15.60;99.90;;;;;;7358727;19;20014;-63
2023/05/09 00:48:15;;;;;;;63.83;43.60;;;15.60;99.90;;;;;;7362876;19;20067;-63
2023/05/09 00:50:42;;;;;;;63.50;42.95;;;15.60;99.90;;;;;;7366618;19;20051;-63
2023/05/09 00:53:09;;;;;;;67.72;45.55;;;15.70;99.90;;;;;;7366631;19;20022;-63
2023/05/09 00:55:35;;;;;;;63.75;43.10;;;15.70;99.90;;;;;;7364379;19;20331;-63
2023/05/09 00:58:02;;;;;;;67.38;44.65;;;15.60;99.90;;;;;;7364872;19;20026;-64
2023/05/09 01:00:29;;;;;;;62.88;41.00;;;15.60;99.90;;;;;;7363515;19;20050;-63
2023/05/09 01:02:56;;;;;;;61.10;43.10;;;15.60;99.90;;;;;;7367590;19;20022;-63
2023/05/09 01:05:33;;;;;;;60.55;41.13;;;15.60;99.90;;;;;;7351330;19;20488;-60
2023/05/09 01:08:47;;;;;;;56.63;38.97;;;15.60;99.90;;;;;;7363877;19;20026;-61
2023/05/09 01:11:26;;;;;;;58.05;41.38;;;15.60;99.90;;;;;;7364211;19;20022;-60
2023/05/09 01:14:19;;;;;;;60.10;42.53;;;15.60;99.90;;;;;;7370993;19;20488;-63
2023/05/09 01:17:20;;;;;;;62.45;42.55;;;15.50;99.90;;;;;;7364857;19;20540;-65
2023/05/09 01:19:55;;;;;;;60.65;40.35;;;15.50;99.90;;;;;;7365684;19;20481;-63
2023/05/09 01:22:30;;;;;;;61.05;43.30;;;15.50;99.90;;;;;;7363490;19;20014;-63
2023/05/09 01:25:18;;;;;;;64.25;43.00;;;15.50;99.90;;;;;;7364146;19;20477;-63
2023/05/09 01:27:56;;;;;;;60.42;41.15;;;15.50;99.90;;;;;;7368949;19;20018;-64
2023/05/09 01:30:25;;;;;;;66.88;44.17;;;15.50;99.90;;;;;;7362174;19;20023;-64
2023/05/09 01:32:58;;;;;;;69.45;45.92;;;15.50;99.90;;;;;;7364526;19;20014;-63
2023/05/09 01:35:25;;;;;;;73.55;48.05;;;15.50;99.90;;;;;;7360900;19;20017;-63
2023/05/09 01:37:53;;;;;;;67.47;45.15;;;15.50;99.90;;;;;;7360849;19;20022;-64
2023/05/09 01:40:21;;;;;;;67.00;46.05;;;15.50;99.90;;;;;;7361520;19;20021;-63
2023/05/09 01:43:02;;;;;;;70.20;47.20;;;15.50;99.90;;;;;;7363781;19;20018;-63
2023/05/09 01:45:30;;;;;;;67.00;45.40;;;15.50;99.90;;;;;;7362183;19;20526;-63
2023/05/09 01:47:57;;;;;;;68.95;45.60;;;15.60;99.90;;;;;;7357081;19;20026;-64
2023/05/09 01:50:25;;;;;;;80.25;51.35;;;15.50;99.90;;;;;;7362791;19;20026;-63
2023/05/09 01:52:55;;;;;;;77.25;48.80;;;15.40;99.90;;;;;;7359733;19;20103;-63
2023/05/09 01:55:24;;;;;;;74.25;47.75;;;15.40;99.90;;;;;;7365085;19;20022;-63
2023/05/09 01:57:52;;;;;;;79.43;49.80;;;15.50;99.90;;;;;;7360403;19;20752;-63
2023/05/09 02:00:20;;;;;;;82.28;51.03;;;15.50;99.90;;;;;;7362343;19;20033;-64
2023/05/09 02:02:46;;;;;;;75.78;49.58;;;15.50;99.90;;;;;;7363052;19;20042;-63
2023/05/09 02:05:14;;;;;;;70.88;48.55;;;15.50;99.90;;;;;;7363672;19;20051;-63
2023/05/09 02:07:41;;;;;;;71.25;45.75;;;15.40;99.90;;;;;;7362587;19;20794;-63
2023/05/09 02:10:09;;;;;;;72.32;48.05;;;15.50;99.90;;;;;;7364141;19;20026;-63
2023/05/09 02:12:37;;;;;;;75.13;48.95;;;15.50;99.90;;;;;;7359067;19;20019;-63
2023/05/09 02:15:04;;;;;;;71.47;45.83;;;15.50;99.90;;;;;;7362631;19;20030;-64
2023/05/09 02:17:31;;;;;;;76.00;47.03;;;15.50;99.90;;;;;;7365281;19;20029;-63
2023/05/09 02:19:57;;;;;;;72.38;49.67;;;15.40;99.90;;;;;;7371481;19;20018;-60
2023/05/09 02:22:24;;;;;;;80.65;48.58;;;15.40;99.90;;;;;;7368628;19;20014;-63
2023/05/09 02:24:51;;;;;;;78.95;51.53;;;15.40;99.90;;;;;;7369477;19;20489;-63
2023/05/09 02:27:18;;;;;;;79.82;52.35;;;15.30;99.90;;;;;;7372990;19;20015;-64
2023/05/09 02:29:53;;;;;;;82.68;52.08;;;15.40;99.90;;;;;;7372017;19;20471;-63
2023/05/09 02:32:24;;;;;;;88.05;53.67;;;15.40;99.90;;;;;;7366159;19;20026;-63
2023/05/09 02:34:52;;;;;;;88.28;55.35;;;15.40;99.90;;;;;;7370689;19;20014;-63
2023/05/09 02:37:20;;;;;;;88.78;54.92;;;15.40;99.90;;;;;;7368523;19;20599;-63
2023/05/09 02:39:47;;;;;;;90.45;54.60;;;15.30;99.90;;;;;;7371594;19;20022;-60
2023/05/09 02:42:21;;;;;;;90.72;55.55;;;15.30;99.90;;;;;;7366175;19;20018;-60
2023/05/09 02:44:47;;;;;;;86.20;54.80;;;15.30;99.90;;;;;;7367455;19;20041;-60
2023/05/09 02:47:15;;;;;;;85.65;56.40;;;15.30;99.90;;;;;;7369156;19;20019;-60
2023/05/09 02:49:41;;;;;;;83.22;52.88;;;15.30;99.90;;;;;;7372365;19;20025;-60
2023/05/09 02:52:07;;;;;;;85.90;54.47;;;15.30;99.90;;;;;;7370547;19;20019;-60
2023/05/09 02:54:34;;;;;;;88.53;54.30;;;15.30;99.90;;;;;;7364540;19;20018;-60
2023/05/09 02:57:00;;;;;;;86.82;53.28;;;15.30;99.90;;;;;;7372980;19;20018;-60
2023/05/09 02:59:26;;;;;;;93.10;56.00;;;15.30;99.90;;;;;;7366570;19;20508;-60
2023/05/09 03:01:52;;;;;;;80.78;51.22;;;15.40;99.90;;;;;;7373940;19;20023;-60
2023/05/09 03:04:18;;;;;;;79.50;52.17;;;15.40;99.90;;;;;;7366549;19;20041;-60
2023/05/09 03:06:45;;;;;;;87.25;54.22;;;15.40;99.90;;;;;;7371362;19;20461;-60
2023/05/09 03:09:12;;;;;;;82.43;55.55;;;15.40;99.90;;;;;;7368425;19;20041;-60
2023/05/09 03:11:38;;;;;;;95.50;56.95;;;15.40;99.90;;;;;;7370537;19;20465;-60
2023/05/09 03:14:07;;;;;;;85.45;55.08;;;15.40;99.90;;;;;;7366751;19;20034;-60
2023/05/09 03:16:33;;;;;;;105.65;59.38;;;15.40;99.90;;;;;;7368832;19;20488;-60
2023/05/09 03:19:00;;;;;;;95.80;56.78;;;15.40;99.90;;;;;;7368964;19;20025;-63
2023/05/09 03:21:26;;;;;;;98.07;58.35;;;15.40;99.90;;;;;;7368081;19;20019;-63
2023/05/09 03:23:52;;;;;;;103.03;61.67;;;15.40;99.90;;;;;;7370128;19;20025;-63
2023/05/09 03:26:18;;;;;;;101.65;59.95;;;15.40;99.90;;;;;;7362687;19;20644;-63
2023/05/09 03:28:45;;;;;;;119.78;65.75;;;15.30;99.90;;;;;;7371122;19;20481;-63
2023/05/09 03:31:12;;;;;;;127.80;68.35;;;15.30;99.90;;;;;;7363073;19;20018;-64
2023/05/09 03:33:38;;;;;;;108.78;64.40;;;15.30;99.90;;;;;;7371558;19;20481;-63
2023/05/09 03:36:05;;;;;;;136.30;68.93;;;15.30;99.90;;;;;;7368125;19;20355;-63
2023/05/09 03:38:31;;;;;;;112.25;63.42;;;15.30;99.90;;;;;;7366701;19;20607;-63
2023/05/09 03:40:57;;;;;;;104.15;63.83;;;15.30;99.90;;;;;;7368852;19;20026;-63
2023/05/09 03:43:25;;;;;;;100.65;62.42;;;15.30;99.90;;;;;;7364650;19;20021;-64
2023/05/09 03:45:51;;;;;;;97.05;60.72;;;15.30;99.90;;;;;;7367057;19;20026;-64
2023/05/09 03:48:17;;;;;;;89.90;61.67;;;15.30;99.90;;;;;;7363465;19;20022;-63
2023/05/09 03:50:49;;;;;;;82.80;59.25;;;15.30;99.90;;;;;;7370449;19;20014;-63
2023/05/09 03:53:15;;;;;;;83.82;59.70;;;15.30;99.90;;;;;;7366806;19;20022;-64
2023/05/09 03:55:43;;;;;;;99.70;62.10;;;15.30;99.90;;;;;;7366674;19;20018;-63
2023/05/09 03:58:12;;;;;;;82.28;57.97;;;15.30;99.90;;;;;;7365299;19;20048;-63
2023/05/09 04:00:41;;;;;;;80.30;59.03;;;15.30;99.90;;;;;;7369181;19;20612;-63
2023/05/09 04:03:13;;;;;;;82.70;58.58;;;15.30;99.90;;;;;;7365080;19;20018;-64
2023/05/09 04:05:43;;;;;;;75.10;56.70;;;15.30;99.90;;;;;;7369761;19;20617;-63
2023/05/09 04:08:16;;;;;;;78.63;58.55;;;15.30;99.90;;;;;;7365879;19;20019;-63
2023/05/09 04:10:43;;;;;;;69.13;54.15;;;15.30;99.90;;;;;;7370030;19;20042;-63
2023/05/09 04:13:10;;;;;;;74.40;53.67;;;15.30;99.90;;;;;;7365742;19;20022;-63
2023/05/09 04:15:36;;;;;;;65.97;53.35;;;15.30;99.90;;;;;;7367237;19;20470;-62
2023/05/09 04:18:02;;;;;;;64.68;53.40;;;15.30;99.90;;;;;;7365063;19;20038;-63
2023/05/09 04:20:30;;;;;;;62.97;50.38;;;15.30;99.90;;;;;;7369515;19;20822;-63
2023/05/09 04:22:56;;;;;;;62.50;51.83;;;15.40;99.90;;;;;;7366933;19;20035;-63
2023/05/09 04:25:22;;;;;;;63.17;51.17;;;15.40;99.90;;;;;;7360197;19;21030;-63
2023/05/09 04:27:49;;;;;;;64.05;52.22;;;15.40;99.90;;;;;;7361987;19;20128;-63
2023/05/09 04:30:15;;;;;;;63.08;52.03;;;15.40;99.90;;;;;;7356655;19;20026;-63
2023/05/09 04:32:44;;;;;;;61.03;50.88;;;15.40;99.90;;;;;;7358994;19;21290;-63
2023/05/09 04:35:11;;;;;;;59.00;50.72;;;15.40;99.90;;;;;;7357284;19;20022;-63
2023/05/09 04:37:41;;;;;;;60.83;49.80;;;15.40;99.90;;;;;;7360313;19;20021;-63
2023/05/09 04:40:08;;;;;;;56.42;49.03;;;15.40;99.90;;;;;;7367233;19;20022;-61
2023/05/09 04:42:41;;;;;;;53.78;47.05;;;15.40;99.90;;;;;;7365683;19;21235;-62
2023/05/09 04:45:10;;;;;;;52.30;46.38;;;15.40;99.90;;;;;;7364954;19;20501;-62
2023/05/09 04:47:37;;;;;;;52.10;46.40;;;15.40;99.90;;;;;;7364081;19;20021;-62
2023/05/09 04:50:05;;;;;;;50.80;45.33;;;15.40;99.90;;;;;;7361304;19;20018;-62
2023/05/09 04:52:32;;;;;;;50.80;44.95;;;15.40;99.90;;;;;;7357440;19;20027;-62
2023/05/09 04:54:58;;;;;;;50.75;43.42;;;15.50;99.90;;;;;;7356054;19;20036;-63
2023/05/09 04:57:28;;;;;;;49.00;43.72;;;15.40;99.90;;;;;;7363955;19;20434;-62
2023/05/09 04:59:56;;;;;;;49.05;43.75;;;15.40;99.90;;;;;;7365539;19;20029;-62
2023/05/09 05:02:24;;;;;;;53.28;46.22;;;15.50;99.90;;;;;;7365565;19;20024;-62
2023/05/09 05:04:51;;;;;;;56.17;46.83;;;15.50;99.90;;;;;;7369680;19;20561;-62
2023/05/09 05:07:17;;;;;;;55.15;47.60;;;15.50;99.90;;;;;;7364284;19;20358;-62
2023/05/09 05:09:44;;;;;;;53.70;46.22;;;15.40;99.90;;;;;;7367159;19;20611;-62
2023/05/09 05:12:11;;;;;;;52.97;44.97;;;15.50;99.90;;;;;;7364573;19;20703;-63
2023/05/09 05:14:39;;;;;;;45.72;40.97;;;15.50;99.90;;;;;;7364905;19;20022;-62
2023/05/09 05:17:07;;;;;;;43.53;39.03;;;15.50;99.90;;;;;;7363618;19;20697;-62
2023/05/09 05:19:34;;;;;;;42.72;38.22;;;15.50;99.90;;;;;;7360046;19;20157;-62
2023/05/09 05:22:01;;;;;;;43.22;38.47;;;15.40;99.90;;;;;;7364680;19;20018;-62
2023/05/09 05:24:29;;;;;;;42.17;37.97;;;15.40;99.90;;;;;;7364010;19;20065;-62
2023/05/09 05:26:56;;;;;;;40.30;36.22;;;15.40;99.90;;;;;;7367156;19;20026;-62
2023/05/09 05:29:22;;;;;;;38.72;34.83;;;15.40;99.90;;;;;;7364966;19;20015;-62
2023/05/09 05:31:49;;;;;;;39.25;35.38;;;15.40;99.90;;;;;;7359951;19;20473;-63
2023/05/09 05:34:15;;;;;;;36.67;32.97;;;15.30;99.90;;;;;;7363883;19;20029;-64
2023/05/09 05:36:43;;;;;;;37.00;33.50;;;15.30;99.90;;;;;;7363729;19;20081;-63
2023/05/09 05:39:09;;;;;;;37.55;33.92;;;15.20;99.90;;;;;;7362308;19;20054;-64
2023/05/09 05:41:36;;;;;;;37.20;33.20;;;15.20;99.90;;;;;;7358581;19;20520;-64
2023/05/09 05:44:04;;;;;;;37.25;33.55;;;15.30;99.90;;;;;;7361871;19;20502;-63
2023/05/09 05:46:32;;;;;;;33.90;30.75;;;15.20;99.90;;;;;;7361067;19;20019;-63
2023/05/09 05:48:59;;;;;;;35.70;32.10;;;15.20;99.90;;;;;;7366056;19;20015;-63
2023/05/09 05:51:26;;;;;;;34.85;31.25;;;15.20;99.90;;;;;;7361213;19;20378;-63
2023/05/09 05:53:53;;;;;;;34.20;30.92;;;15.20;99.90;;;;;;7374318;19;20022;-63
2023/05/09 05:56:21;;;;;;;34.95;31.52;;;15.20;99.90;;;;;;7370662;19;20485;-63
2023/05/09 05:58:48;;;;;;;34.92;31.52;;;15.20;99.90;;;;;;7372624;19;20030;-63
2023/05/09 06:01:17;;;;;;;34.85;31.35;;;15.20;99.90;;;;;;7369052;19;20014;-62
2023/05/09 06:03:43;;;;;;;34.50;31.10;;;15.20;99.90;;;;;;7372263;19;20042;-63
2023/05/09 06:06:10;;;;;;;34.67;31.08;;;15.20;99.90;;;;;;7374552;19;20025;-63
2023/05/09 06:08:36;;;;;;;33.25;29.95;;;15.20;99.90;;;;;;7355648;19;20295;-63
2023/05/09 06:11:04;;;;;;;32.67;29.48;;;15.30;99.90;;;;;;7362355;19;20029;-63
2023/05/09 06:13:31;;;;;;;32.85;29.60;;;15.30;99.90;;;;;;7353094;19;20022;-63
2023/05/09 06:16:03;;;;;;;34.97;31.40;;;15.30;99.90;;;;;;7360359;19;20478;-63
2023/05/09 06:18:29;;;;;;;34.40;30.85;;;15.40;99.90;;;;;;7355650;19;20054;-63
2023/05/09 06:20:56;;;;;;;34.05;30.58;;;15.40;99.90;;;;;;7356949;19;20946;-63
2023/05/09 06:23:22;;;;;;;34.03;30.42;;;15.50;99.90;;;;;;7351705;19;20054;-63
2023/05/09 06:25:49;;;;;;;36.10;32.20;;;15.60;99.90;;;;;;7355991;19;20039;-63
2023/05/09 06:28:16;;;;;;;36.65;32.67;;;15.60;99.90;;;;;;7358699;19;20303;-62
2023/05/09 06:30:45;;;;;;;38.92;34.90;;;15.70;99.90;;;;;;7356269;19;20066;-62
2023/05/09 06:33:11;;;;;;;38.92;33.60;;;15.80;99.90;;;;;;7353207;19;20014;-62
2023/05/09 06:35:38;;;;;;;39.25;34.85;;;15.70;99.90;;;;;;7354538;19;20022;-62
2023/05/09 06:38:04;;;;;;;43.47;36.83;;;15.80;99.90;;;;;;7361431;19;20018;-63
2023/05/09 06:40:31;;;;;;;41.83;36.10;;;15.80;99.90;;;;;;7358876;19;20388;-64
2023/05/09 06:42:57;;;;;;;42.08;37.33;;;15.80;99.90;;;;;;7356408;19;20595;-65
2023/05/09 06:45:23;;;;;;;45.58;36.90;;;15.80;99.90;;;;;;7355257;19;20048;-64
2023/05/09 06:47:50;;;;;;;47.13;38.67;;;15.90;99.90;;;;;;7351688;19;20487;-65
2023/05/09 06:50:17;;;;;;;45.97;38.97;;;15.90;99.90;;;;;;7356922;19;20788;-64
2023/05/09 06:52:44;;;;;;;46.55;40.97;;;16.00;99.90;;;;;;7353740;19;20018;-63
2023/05/09 06:55:10;;;;;;;51.17;41.05;;;16.00;99.90;;;;;;7359061;19;20461;-65
2023/05/09 06:57:38;;;;;;;49.90;41.95;;;16.00;99.90;;;;;;7354510;19;20454;-64
2023/05/09 07:00:05;;;;;;;54.38;42.00;;;16.00;99.90;;;;;;7354003;19;20378;-65
2023/05/09 07:02:32;;;;;;;55.92;44.30;;;16.00;99.90;;;;;;7354008;19;20025;-65
2023/05/09 07:04:58;;;;;;;60.58;45.60;;;16.00;99.90;;;;;;7357086;19;20018;-64
2023/05/09 07:07:24;;;;;;;58.67;45.33;;;15.90;99.90;;;;;;7357234;19;20031;-66
2023/05/09 07:09:50;;;;;;;52.72;45.17;;;15.90;99.90;;;;;;7364113;19;20018;-65
2023/05/09 07:12:19;;;;;;;51.35;43.13;;;15.90;99.90;;;;;;7368728;19;20023;-65
2023/05/09 07:14:45;;;;;;;52.75;42.17;;;15.90;99.90;;;;;;7368500;19;20023;-64
2023/05/09 07:17:11;;;;;;;49.38;44.13;;;16.00;99.90;;;;;;7372970;19;20065;-65
2023/05/09 07:19:37;;;;;;;51.65;42.97;;;15.90;99.90;;;;;;7371300;19;20027;-65
2023/05/09 07:22:03;;;;;;;49.22;42.60;;;15.90;99.90;;;;;;7372912;19;20054;-68
2023/05/09 07:24:30;;;;;;;53.88;44.38;;;15.90;99.90;;;;;;7374081;19;20018;-65
2023/05/09 07:26:56;;;;;;;51.83;43.90;;;15.90;99.90;;;;;;7374348;19;20582;-65
2023/05/09 07:29:22;;;;;;;52.90;43.30;;;15.90;99.90;;;;;;7366825;19;20427;-65
2023/05/09 07:31:48;;;;;;;53.65;43.92;;;16.00;99.90;;;;;;7369991;19;20019;-65
2023/05/09 07:34:15;;;;;;;52.55;42.20;;;16.00;99.90;;;;;;7368916;19;20022;-65
2023/05/09 07:36:45;;;;;;;48.47;40.83;;;16.10;99.90;;;;;;7372175;19;20029;-65
2023/05/09 07:39:11;;;;;;;58.38;43.88;;;16.20;99.90;;;;;;7372435;19;20026;-65
2023/05/09 07:41:37;;;;;;;49.95;41.55;;;16.20;99.90;;;;;;7370383;19;20027;-65
2023/05/09 07:44:04;;;;;;;50.45;42.85;;;16.30;99.90;;;;;;7373883;19;20135;-65
2023/05/09 07:46:30;;;;;;;58.25;46.40;;;16.40;99.90;;;;;;7367072;19;20014;-65
2023/05/09 07:48:57;;;;;;;54.78;42.22;;;16.40;99.90;;;;;;7374272;19;20708;-63
2023/05/09 07:51:23;;;;;;;56.70;44.20;;;16.60;99.90;;;;;;7370860;19;20018;-62
2023/05/09 07:53:49;;;;;;;55.83;43.92;;;16.60;99.90;;;;;;7373914;19;20365;-63
2023/05/09 07:56:15;;;;;;;54.95;44.08;;;16.70;99.90;;;;;;7371029;19;20467;-65
2023/05/09 07:58:42;;;;;;;53.35;43.25;;;16.80;99.90;;;;;;7371560;19;20451;-65
2023/05/09 08:01:08;;;;;;;53.20;42.58;;;16.90;99.90;;;;;;7366197;19;20764;-65
2023/05/09 08:03:35;;;;;;;56.47;43.95;;;16.90;99.90;;;;;;7370853;19;20038;-65
2023/05/09 08:06:01;;;;;;;51.40;41.40;;;17.00;99.90;;;;;;7369837;19;20624;-65
2023/05/09 08:08:27;;;;;;;52.80;42.45;;;17.10;99.90;;;;;;7370690;19;20027;-63
2023/05/09 08:10:54;;;;;;;61.47;44.15;;;17.10;99.90;;;;;;7371769;19;20036;-63
2023/05/09 08:13:21;;;;;;;58.08;44.70;;;17.00;99.90;;;;;;7366621;19;20579;-63
2023/05/09 08:15:48;;;;;;;64.47;46.28;;;17.00;99.90;;;;;;7369708;19;20570;-66
2023/05/09 08:18:14;;;;;;;57.53;44.83;;;17.00;99.90;;;;;;7372720;19;20014;-63
2023/05/09 08:20:41;;;;;;;58.55;41.95;;;17.10;99.90;;;;;;7369674;19;20086;-64
2023/05/09 08:23:07;;;;;;;58.42;43.85;;;17.20;99.90;;;;;;7368908;19;20035;-65
2023/05/09 08:25:33;;;;;;;60.20;43.33;;;17.20;99.90;;;;;;7371186;19;20022;-65
2023/05/09 08:28:00;;;;;;;55.97;43.08;;;17.20;99.90;;;;;;7372421;19;20034;-65
2023/05/09 08:30:28;;;;;;;58.17;43.88;;;17.30;99.90;;;;;;7371756;19;20014;-66
2023/05/09 08:32:55;;;;;;;52.58;42.42;;;17.30;99.90;;;;;;7367606;19;20057;-65
2023/05/09 08:35:21;;;;;;;54.55;41.78;;;17.30;99.90;;;;;;7370272;19;20042;-63
2023/05/09 08:37:48;;;;;;;58.53;42.80;;;17.30;99.90;;;;;;7367886;19;20025;-63
2023/05/09 08:40:14;;;;;;;55.92;42.10;;;17.40;99.90;;;;;;7372759;19;20039;-62
2023/05/09 08:42:44;;;;;;;57.65;41.65;;;17.40;99.90;;;;;;7366358;19;20046;-63
2023/05/09 08:45:15;;;;;;;50.88;39.45;;;17.50;99.90;;;;;;7367593;19;20592;-63
2023/05/09 08:47:41;;;;;;;54.70;40.67;;;17.70;99.90;;;;;;7369872;19;20937;-63
2023/05/09 08:50:10;;;;;;;54.28;40.53;;;17.80;99.90;;;;;;7367232;19;20037;-63
2023/05/09 08:52:37;;;;;;;44.97;36.25;;;17.80;99.90;;;;;;7365819;19;20297;-63
2023/05/09 08:55:04;;;;;;;45.33;36.70;;;17.70;99.90;;;;;;7370916;19;20019;-62
2023/05/09 08:57:33;;;;;;;42.72;36.33;;;17.70;99.90;;;;;;7368533;19;20110;-63
2023/05/09 09:00:03;;;;;;;45.42;38.92;;;17.70;99.90;;;;;;7368642;19;20022;-63
2023/05/09 09:02:30;;;;;;;47.67;37.55;;;17.80;99.90;;;;;;7368116;19;20473;-62
2023/05/09 09:04:56;;;;;;;43.70;34.50;;;17.80;99.90;;;;;;7372183;19;20994;-63
2023/05/09 09:07:24;;;;;;;45.03;35.35;;;17.80;99.90;;;;;;7371155;19;20029;-66
2023/05/09 09:09:53;;;;;;;40.70;34.25;;;17.90;99.90;;;;;;7372347;19;20358;-63
2023/05/09 09:12:22;;;;;;;39.95;32.83;;;18.10;99.90;;;;;;7367287;19;20540;-62
2023/05/09 09:14:53;;;;;;;37.53;33.13;;;18.20;99.90;;;;;;7366129;19;20015;-63
2023/05/09 09:17:24;;;;;;;36.65;31.05;;;18.40;99.90;;;;;;7365082;19;20633;-63
2023/05/09 09:19:55;;;;;;;37.53;33.05;;;18.60;99.90;;;;;;7373093;19;20025;-62
2023/05/09 09:22:22;;;;;;;36.70;32.45;;;18.60;99.90;;;;;;7367515;19;20018;-63
2023/05/09 09:24:49;;;;;;;40.83;32.85;;;18.60;99.90;;;;;;7368790;19;20057;-66
2023/05/09 09:27:16;;;;;;;37.60;32.40;;;18.40;99.90;;;;;;7368976;19;20030;-66
2023/05/09 09:29:42;;;;;;;35.08;30.88;;;18.20;99.90;;;;;;7368154;19;20053;-63
2023/05/09 09:32:08;;;;;;;36.45;31.10;;;18.10;99.90;;;;;;7367704;19;20070;-62
2023/05/09 09:34:35;;;;;;;42.47;33.72;;;18.00;99.90;;;;;;7365350;19;20019;-62
2023/05/09 09:37:05;;;;;;;40.10;33.78;;;17.90;99.90;;;;;;7364752;19;20025;-62
2023/05/09 09:39:31;;;;;;;37.47;31.70;;;18.00;99.90;;;;;;7365742;19;20105;-62
2023/05/09 09:42:09;;;;;;;41.58;32.90;;;18.20;99.90;;;;;;7366202;19;20497;-62
2023/05/09 09:44:35;;;;;;;36.10;31.55;;;18.40;99.90;;;;;;7362547;19;20014;-62
2023/05/09 09:47:02;;;;;;;36.58;32.28;;;18.60;99.90;;;;;;7369427;19;20011;-62
2023/05/09 09:49:28;;;;;;;39.30;32.85;;;18.70;99.90;;;;;;7367630;19;20493;-63
2023/05/09 09:51:57;;;;;;;35.22;30.85;;;18.70;99.90;;;;;;7364190;19;20015;-63
2023/05/09 09:54:26;;;;;;;37.70;33.17;;;18.80;99.90;;;;;;7363474;19;20452;-66
2023/05/09 09:56:53;;;;;;;37.97;32.22;;;19.20;99.90;;;;;;7368179;19;20365;-66
2023/05/09 09:59:23;;;;;;;35.22;30.08;;;19.50;99.90;;;;;;7368296;19;20023;-63
2023/05/09 10:02:06;;;;;;;33.25;29.73;;;19.70;99.90;;;;;;7366379;19;20021;-62
2023/05/09 10:04:34;;;;;;;34.28;30.52;;;19.80;99.90;;;;;;7368173;19;20052;-62
2023/05/09 10:07:03;;;;;;;32.97;29.27;;;19.90;99.90;;;;;;7368923;19;20033;-62
2023/05/09 10:09:30;;;;;;;34.45;30.33;;;20.00;99.90;;;;;;7366184;19;20015;-66
2023/05/09 10:12:01;;;;;;;32.97;29.38;;;20.00;99.90;;;;;;7365841;19;20022;-66
2023/05/09 10:14:30;;;;;;;29.52;26.27;;;20.20;99.90;;;;;;7367750;19;20022;-66
2023/05/09 10:16:59;;;;;;;30.27;27.13;;;20.30;99.90;;;;;;7368904;19;20018;-63
2023/05/09 10:19:28;;;;;;;31.65;27.05;;;20.60;99.90;;;;;;7365271;19;20057;-62
2023/05/09 10:22:07;;;;;;;32.22;28.27;;;20.50;99.90;;;;;;7366941;19;20611;-62
2023/05/09 10:24:39;;;;;;;30.65;27.40;;;20.70;99.90;;;;;;7365779;19;20086;-62
2023/05/09 10:27:09;;;;;;;30.38;26.42;;;20.90;99.90;;;;;;7363371;19;20034;-66
2023/05/09 10:29:50;;;;;;;28.25;25.20;;;20.90;99.90;;;;;;7368487;19;20120;-60
2023/05/09 10:32:23;;;;;;;28.33;24.65;;;21.10;99.90;;;;;;7367766;19;20485;-64
2023/05/09 10:34:53;;;;;;;26.30;23.60;;;21.00;99.90;;;;;;7367043;19;20023;-64
2023/05/09 10:37:20;;;;;;;27.83;24.90;;;20.90;99.90;;;;;;7366720;19;20514;-63
2023/05/09 10:39:52;;;;;;;26.27;23.48;;;20.80;99.90;;;;;;7376481;19;20011;-64
2023/05/09 10:42:19;;;;;;;29.33;26.20;;;20.80;99.90;;;;;;7376648;19;20026;-64
2023/05/09 10:44:47;;;;;;;30.40;26.50;;;20.90;99.90;;;;;;7373522;19;20353;-64
2023/05/09 10:47:14;;;;;;;29.27;26.02;;;20.70;99.90;;;;;;7375096;19;20031;-64
2023/05/09 10:49:42;;;;;;;27.73;24.90;;;20.50;99.90;;;;;;7371384;19;20485;-64
2023/05/09 10:52:09;;;;;;;27.35;24.42;;;20.60;99.90;;;;;;7374089;19;20018;-64
2023/05/09 10:54:36;;;;;;;28.48;25.42;;;20.60;99.90;;;;;;7370345;19;20054;-63
2023/05/09 10:57:05;;;;;;;28.95;25.85;;;20.40;99.90;;;;;;7373645;19;20051;-64
2023/05/09 10:59:41;;;;;;;30.60;26.05;;;20.40;99.90;;;;;;7373253;19;20023;-64
2023/05/09 11:02:18;;;;;;;28.63;25.42;;;20.20;99.90;;;;;;7373163;19;20076;-64
2023/05/09 11:04:44;;;;;;;28.48;25.58;;;20.20;99.90;;;;;;7370312;19;20750;-66
2023/05/09 11:07:24;;;;;;;28.77;25.77;;;20.20;99.90;;;;;;7378768;19;20075;-62
2023/05/09 11:10:19;;;;;;;29.17;26.15;;;20.30;99.90;;;;;;7373394;19;20456;-64
2023/05/09 11:12:55;;;;;;;28.38;25.48;;;20.40;99.90;;;;;;7376118;19;20023;-65
2023/05/09 11:15:22;;;;;;;27.75;24.85;;;20.70;99.90;;;;;;7371115;19;20026;-64
2023/05/09 11:18:09;;;;;;;24.30;20.63;;;21.00;99.90;;;;;;7371059;19;20401;-64
2023/05/09 11:20:42;;;;;;;21.02;18.77;;;21.00;99.90;;;;;;7369405;19;20097;-65
2023/05/09 11:23:14;;;;;;;20.83;18.73;;;21.00;99.90;;;;;;7373730;19;20026;-64
2023/05/09 11:25:41;;;;;;;20.92;18.73;;;20.90;99.90;;;;;;7370982;19;20429;-65
2023/05/09 11:28:07;;;;;;;21.00;18.67;;;20.90;99.90;;;;;;7375186;19;20401;-64
2023/05/09 11:30:39;;;;;;;21.75;18.98;;;21.00;99.90;;;;;;7372228;19;20014;-64
2023/05/09 11:33:19;;;;;;;19.67;17.67;;;21.10;99.90;;;;;;7372366;19;20025;-64
2023/05/09 11:35:47;;;;;;;20.48;18.27;;;21.20;99.90;;;;;;7375246;19;20037;-64
2023/05/09 11:38:20;;;;;;;18.35;16.35;;;21.40;99.90;;;;;;7378190;19;20481;-64
2023/05/09 11:40:47;;;;;;;20.52;15.13;;;21.10;99.90;;;;;;7374520;19;20018;-64
2023/05/09 11:43:14;;;;;;;15.93;14.13;;;20.80;99.90;;;;;;7372888;19;20530;-65
2023/05/09 11:45:41;;;;;;;16.52;14.85;;;20.70;99.90;;;;;;7375836;19;20390;-64
2023/05/09 11:48:10;;;;;;;16.35;14.65;;;20.60;99.90;;;;;;7374832;19;20032;-64
2023/05/09 11:50:37;;;;;;;15.32;13.45;;;20.60;99.90;;;;;;7371443;19;20231;-65
2023/05/09 11:53:07;;;;;;;15.40;13.30;;;20.80;99.90;;;;;;7371537;19;20014;-64
2023/05/09 11:55:37;;;;;;;14.32;12.82;;;21.00;99.90;;;;;;7368666;19;20018;-64
2023/05/09 11:58:06;;;;;;;13.75;12.23;;;20.90;99.90;;;;;;7372434;19;20014;-60
2023/05/09 12:00:32;;;;;;;14.65;11.88;;;21.10;99.90;;;;;;7372019;19;20446;-60
2023/05/09 12:02:59;;;;;;;12.98;11.63;;;21.30;99.90;;;;;;7369626;19;20014;-61
2023/05/09 12:05:25;;;;;;;11.60;10.40;;;21.40;99.90;;;;;;7371780;19;20014;-66
2023/05/09 12:07:52;;;;;;;12.43;11.13;;;21.40;99.90;;;;;;7374110;19;20610;-64
2023/05/09 12:14:28;;;;;;;15.50;11.63;;;21.30;99.90;;;;;;7370737;19;20010;-64
2023/05/09 12:16:54;;;;;;;12.45;11.25;;;21.50;99.90;;;;;;7374449;19;20086;-60
2023/05/09 12:19:23;;;;;;;13.30;11.25;;;21.70;99.90;;;;;;7371714;19;20103;-60
2023/05/09 12:21:57;;;;;;;13.55;10.95;;;21.60;99.90;;;;;;7366576;19;20102;-61
2023/05/09 12:24:28;;;;;;;12.73;11.43;;;21.50;99.90;;;;;;7371262;19;20019;-61
2023/05/09 12:26:57;;;;;;;13.73;12.25;;;21.50;99.90;;;;;;7371170;19;20018;-60
2023/05/09 12:29:24;;;;;;;15.85;12.23;;;21.40;99.90;;;;;;7371486;19;20443;-64
2023/05/09 12:31:52;;;;;;;14.93;11.23;;;21.10;99.90;;;;;;7369820;19;20010;-65
2023/05/09 12:34:18;;;;;;;15.18;13.30;;;21.20;99.90;;;;;;7374436;19;20041;-61
2023/05/09 12:36:52;;;;;;;14.15;12.57;;;21.10;99.90;;;;;;7371413;19;20106;-64